CYUL

Montreal / Pierre Elliott Trudeau International Airport

Montréal, Quebec, Canada
METAR CYUL 231000Z 03004KT 020V090 15SM OVC100 M07/M10 A3067 RMK AC8 SLP389
Observed Flight Rules
Feb-23 @ 10:00 UTC (28 minutes ago) Visual Flight Rules
Wind Visibility Clouds
30° at 4 knots 15 miles
  • Overcast at 10,000' AGL
Temperatures Readings
Current -7°C / 19°F
Dewpoint -10°C / 14°F
Humidity 79%
Altimeter 30.67" Hg
Pressure 1038.9 hPa
Elevation 36
METAR CYUL 231000Z 03004KT 020V090 15SM OVC100 M07/M10 A3067 RMK AC8 SLP389
Observed Flight Rules
Feb-23 @ 10:00 UTC
(28 minutes ago)
VFR
Wind Visibility
30° at 4 knots 15 miles
Clouds
  • Overcast at 10,000' AGL
Temperature Dewpoint
-7°C / 19°F -10°C / 14°F
Humidity Altimeter Pressure
79% 30.67" Hg 1038.9 hPa